sensor_id;sensor_type;location;lat;lon;timestamp;P1;durP1;ratioP1;P2;durP2;ratioP2
16504;SDS011;8365;51.030;4.696;2022-11-15T00:01:08;30.77;;;22.93;;
16504;SDS011;8365;51.030;4.696;2022-11-15T00:03:50;24.67;;;20.80;;
16504;SDS011;8365;51.030;4.696;2022-11-15T00:06:21;25.60;;;21.07;;
16504;SDS011;8365;51.030;4.696;2022-11-15T00:08:51;30.00;;;21.17;;
16504;SDS011;8365;51.030;4.696;2022-11-15T00:11:22;26.37;;;19.33;;
16504;SDS011;8365;51.030;4.696;2022-11-15T00:13:56;27.63;;;19.77;;
16504;SDS011;8365;51.030;4.696;2022-11-15T00:16:27;27.43;;;19.90;;
16504;SDS011;8365;51.030;4.696;2022-11-15T00:18:58;26.00;;;21.07;;
16504;SDS011;8365;51.030;4.696;2022-11-15T00:21:28;24.53;;;20.37;;
16504;SDS011;8365;51.030;4.696;2022-11-15T00:23:58;24.63;;;20.07;;
16504;SDS011;8365;51.030;4.696;2022-11-15T00:26:29;27.23;;;20.80;;
16504;SDS011;8365;51.030;4.696;2022-11-15T00:28:59;25.53;;;20.27;;
16504;SDS011;8365;51.030;4.696;2022-11-15T00:31:30;24.27;;;18.70;;
16504;SDS011;8365;51.030;4.696;2022-11-15T00:34:00;23.23;;;19.00;;
16504;SDS011;8365;51.030;4.696;2022-11-15T00:36:32;21.90;;;19.60;;
16504;SDS011;8365;51.030;4.696;2022-11-15T00:39:04;24.40;;;18.47;;
16504;SDS011;8365;51.030;4.696;2022-11-15T00:41:35;21.17;;;18.77;;
16504;SDS011;8365;51.030;4.696;2022-11-15T00:44:06;23.73;;;19.20;;
16504;SDS011;8365;51.030;4.696;2022-11-15T00:46:36;21.40;;;19.07;;
16504;SDS011;8365;51.030;4.696;2022-11-15T00:49:07;21.17;;;18.97;;
16504;SDS011;8365;51.030;4.696;2022-11-15T00:51:37;22.57;;;18.47;;
16504;SDS011;8365;51.030;4.696;2022-11-15T00:54:07;21.43;;;18.23;;
16504;SDS011;8365;51.030;4.696;2022-11-15T00:56:40;20.93;;;18.63;;
16504;SDS011;8365;51.030;4.696;2022-11-15T00:59:13;20.17;;;17.57;;
16504;SDS011;8365;51.030;4.696;2022-11-15T01:01:44;20.00;;;17.70;;
16504;SDS011;8365;51.030;4.696;2022-11-15T01:04:14;21.40;;;18.87;;
16504;SDS011;8365;51.030;4.696;2022-11-15T01:06:45;22.13;;;18.40;;
16504;SDS011;8365;51.030;4.696;2022-11-15T01:09:15;21.73;;;19.17;;
16504;SDS011;8365;51.030;4.696;2022-11-15T01:11:45;20.93;;;18.73;;
16504;SDS011;8365;51.030;4.696;2022-11-15T01:14:16;23.20;;;19.00;;
16504;SDS011;8365;51.030;4.696;2022-11-15T01:16:46;25.07;;;18.87;;
16504;SDS011;8365;51.030;4.696;2022-11-15T01:19:17;22.50;;;19.43;;
16504;SDS011;8365;51.030;4.696;2022-11-15T01:21:51;22.87;;;18.57;;
16504;SDS011;8365;51.030;4.696;2022-11-15T01:24:21;22.80;;;19.30;;
16504;SDS011;8365;51.030;4.696;2022-11-15T01:26:52;20.77;;;18.50;;
16504;SDS011;8365;51.030;4.696;2022-11-15T01:29:22;23.83;;;18.60;;
16504;SDS011;8365;51.030;4.696;2022-11-15T01:31:53;22.77;;;19.13;;
16504;SDS011;8365;51.030;4.696;2022-11-15T01:34:23;22.67;;;19.20;;
16504;SDS011;8365;51.030;4.696;2022-11-15T01:36:54;22.60;;;19.90;;
16504;SDS011;8365;51.030;4.696;2022-11-15T01:39:24;21.77;;;19.17;;
16504;SDS011;8365;51.030;4.696;2022-11-15T01:41:55;23.30;;;18.77;;
16504;SDS011;8365;51.030;4.696;2022-11-15T01:47:21;24.10;;;20.23;;
16504;SDS011;8365;51.030;4.696;2022-11-15T01:50:12;21.93;;;19.40;;
16504;SDS011;8365;51.030;4.696;2022-11-15T01:52:45;27.67;;;21.67;;
16504;SDS011;8365;51.030;4.696;2022-11-15T01:55:20;26.17;;;20.97;;
16504;SDS011;8365;51.030;4.696;2022-11-15T01:57:53;27.37;;;21.77;;
16504;SDS011;8365;51.030;4.696;2022-11-15T02:00:28;26.30;;;21.67;;
16504;SDS011;8365;51.030;4.696;2022-11-15T02:02:59;23.30;;;20.30;;
16504;SDS011;8365;51.030;4.696;2022-11-15T02:05:30;26.10;;;21.93;;
16504;SDS011;8365;51.030;4.696;2022-11-15T02:08:01;28.17;;;22.67;;
16504;SDS011;8365;51.030;4.696;2022-11-15T02:10:31;29.80;;;22.83;;
16504;SDS011;8365;51.030;4.696;2022-11-15T02:13:02;30.43;;;24.13;;
16504;SDS011;8365;51.030;4.696;2022-11-15T02:15:34;27.27;;;22.97;;
16504;SDS011;8365;51.030;4.696;2022-11-15T02:18:48;37.87;;;24.20;;
16504;SDS011;8365;51.030;4.696;2022-11-15T02:21:20;31.90;;;23.67;;
16504;SDS011;8365;51.030;4.696;2022-11-15T02:27:38;27.33;;;22.27;;
16504;SDS011;8365;51.030;4.696;2022-11-15T02:30:24;30.20;;;23.27;;
16504;SDS011;8365;51.030;4.696;2022-11-15T02:33:27;27.30;;;22.80;;
16504;SDS011;8365;51.030;4.696;2022-11-15T02:39:10;31.07;;;23.50;;
16504;SDS011;8365;51.030;4.696;2022-11-15T02:44:26;29.80;;;23.37;;
16504;SDS011;8365;51.030;4.696;2022-11-15T02:47:06;32.10;;;23.07;;
16504;SDS011;8365;51.030;4.696;2022-11-15T02:49:46;27.93;;;22.53;;
16504;SDS011;8365;51.030;4.696;2022-11-15T02:52:23;28.17;;;22.77;;
16504;SDS011;8365;51.030;4.696;2022-11-15T02:54:56;28.17;;;22.30;;
16504;SDS011;8365;51.030;4.696;2022-11-15T03:00:06;28.50;;;21.57;;
16504;SDS011;8365;51.030;4.696;2022-11-15T03:02:41;26.63;;;21.30;;
16504;SDS011;8365;51.030;4.696;2022-11-15T03:08:08;24.67;;;20.07;;
16504;SDS011;8365;51.030;4.696;2022-11-15T03:16:39;25.30;;;20.93;;
16504;SDS011;8365;51.030;4.696;2022-11-15T03:19:40;25.53;;;20.97;;
16504;SDS011;8365;51.030;4.696;2022-11-15T03:22:24;25.43;;;21.53;;
16504;SDS011;8365;51.030;4.696;2022-11-15T03:24:59;27.53;;;20.47;;
16504;SDS011;8365;51.030;4.696;2022-11-15T03:27:39;25.60;;;20.27;;
16504;SDS011;8365;51.030;4.696;2022-11-15T03:30:13;24.83;;;20.37;;
16504;SDS011;8365;51.030;4.696;2022-11-15T03:32:46;21.87;;;19.47;;
16504;SDS011;8365;51.030;4.696;2022-11-15T03:35:23;24.17;;;20.43;;
16504;SDS011;8365;51.030;4.696;2022-11-15T03:46:25;22.33;;;19.00;;
16504;SDS011;8365;51.030;4.696;2022-11-15T03:49:07;22.57;;;19.20;;
16504;SDS011;8365;51.030;4.696;2022-11-15T03:51:42;24.23;;;20.03;;
16504;SDS011;8365;51.030;4.696;2022-11-15T03:54:13;24.87;;;19.83;;
16504;SDS011;8365;51.030;4.696;2022-11-15T03:56:43;23.63;;;20.40;;
16504;SDS011;8365;51.030;4.696;2022-11-15T03:59:14;25.57;;;20.33;;
16504;SDS011;8365;51.030;4.696;2022-11-15T04:01:44;23.93;;;20.03;;
16504;SDS011;8365;51.030;4.696;2022-11-15T04:04:14;25.67;;;19.83;;
16504;SDS011;8365;51.030;4.696;2022-11-15T04:06:45;24.13;;;20.07;;
16504;SDS011;8365;51.030;4.696;2022-11-15T04:09:15;21.57;;;19.23;;
16504;SDS011;8365;51.030;4.696;2022-11-15T04:11:46;23.60;;;19.17;;
16504;SDS011;8365;51.030;4.696;2022-11-15T04:14:16;23.73;;;19.63;;
16504;SDS011;8365;51.030;4.696;2022-11-15T04:16:47;22.67;;;19.40;;
16504;SDS011;8365;51.030;4.696;2022-11-15T04:19:17;23.40;;;19.53;;
16504;SDS011;8365;51.030;4.696;2022-11-15T04:22:07;21.10;;;17.50;;
16504;SDS011;8365;51.030;4.696;2022-11-15T04:24:58;22.37;;;18.80;;
16504;SDS011;8365;51.030;4.696;2022-11-15T04:27:28;18.97;;;16.93;;
16504;SDS011;8365;51.030;4.696;2022-11-15T04:30:01;20.63;;;17.07;;
16504;SDS011;8365;51.030;4.696;2022-11-15T04:32:32;21.37;;;16.97;;
16504;SDS011;8365;51.030;4.696;2022-11-15T04:35:02;16.93;;;15.13;;
16504;SDS011;8365;51.030;4.696;2022-11-15T04:37:33;17.17;;;15.10;;
16504;SDS011;8365;51.030;4.696;2022-11-15T04:40:03;17.90;;;15.47;;
16504;SDS011;8365;51.030;4.696;2022-11-15T04:42:34;19.57;;;14.93;;
16504;SDS011;8365;51.030;4.696;2022-11-15T04:45:05;18.13;;;13.17;;
16504;SDS011;8365;51.030;4.696;2022-11-15T04:47:35;16.13;;;13.03;;
16504;SDS011;8365;51.030;4.696;2022-11-15T04:50:06;15.70;;;11.97;;
16504;SDS011;8365;51.030;4.696;2022-11-15T04:52:37;15.77;;;11.30;;
16504;SDS011;8365;51.030;4.696;2022-11-15T04:55:08;14.37;;;11.20;;
16504;SDS011;8365;51.030;4.696;2022-11-15T04:57:39;13.83;;;11.57;;
16504;SDS011;8365;51.030;4.696;2022-11-15T05:00:11;11.57;;;10.33;;
16504;SDS011;8365;51.030;4.696;2022-11-15T05:02:43;14.17;;;10.90;;
16504;SDS011;8365;51.030;4.696;2022-11-15T05:05:35;12.37;;;10.27;;
16504;SDS011;8365;51.030;4.696;2022-11-15T05:08:05;12.77;;;10.17;;
16504;SDS011;8365;51.030;4.696;2022-11-15T05:10:38;12.60;;;9.93;;
16504;SDS011;8365;51.030;4.696;2022-11-15T05:13:09;12.40;;;9.77;;
16504;SDS011;8365;51.030;4.696;2022-11-15T05:15:39;11.90;;;9.63;;
16504;SDS011;8365;51.030;4.696;2022-11-15T05:18:10;10.43;;;9.33;;
16504;SDS011;8365;51.030;4.696;2022-11-15T05:20:43;11.57;;;9.27;;
16504;SDS011;8365;51.030;4.696;2022-11-15T05:23:16;12.70;;;9.33;;
16504;SDS011;8365;51.030;4.696;2022-11-15T05:25:46;12.87;;;9.40;;
16504;SDS011;8365;51.030;4.696;2022-11-15T05:28:17;12.83;;;9.20;;
16504;SDS011;8365;51.030;4.696;2022-11-15T05:30:47;16.30;;;12.17;;
16504;SDS011;8365;51.030;4.696;2022-11-15T05:33:18;15.00;;;10.83;;
16504;SDS011;8365;51.030;4.696;2022-11-15T05:35:50;15.60;;;11.17;;
16504;SDS011;8365;51.030;4.696;2022-11-15T05:38:29;13.13;;;10.77;;
16504;SDS011;8365;51.030;4.696;2022-11-15T05:41:00;15.03;;;11.30;;
16504;SDS011;8365;51.030;4.696;2022-11-15T05:43:32;14.80;;;11.50;;
16504;SDS011;8365;51.030;4.696;2022-11-15T05:46:05;16.40;;;11.50;;
16504;SDS011;8365;51.030;4.696;2022-11-15T05:48:39;13.77;;;10.23;;
16504;SDS011;8365;51.030;4.696;2022-11-15T05:51:13;11.93;;;10.00;;
16504;SDS011;8365;51.030;4.696;2022-11-15T05:53:45;12.33;;;9.67;;
16504;SDS011;8365;51.030;4.696;2022-11-15T05:56:16;12.10;;;8.97;;
16504;SDS011;8365;51.030;4.696;2022-11-15T05:58:46;12.23;;;9.10;;
16504;SDS011;8365;51.030;4.696;2022-11-15T06:01:17;11.93;;;9.17;;
16504;SDS011;8365;51.030;4.696;2022-11-15T06:03:47;12.70;;;9.73;;
16504;SDS011;8365;51.030;4.696;2022-11-15T06:06:18;11.30;;;8.93;;
16504;SDS011;8365;51.030;4.696;2022-11-15T06:08:48;10.67;;;8.57;;
16504;SDS011;8365;51.030;4.696;2022-11-15T06:11:19;13.10;;;9.03;;
16504;SDS011;8365;51.030;4.696;2022-11-15T06:13:49;9.87;;;8.07;;
16504;SDS011;8365;51.030;4.696;2022-11-15T06:16:20;12.00;;;8.90;;
16504;SDS011;8365;51.030;4.696;2022-11-15T06:18:50;14.10;;;8.50;;
16504;SDS011;8365;51.030;4.696;2022-11-15T06:21:20;10.43;;;8.70;;
16504;SDS011;8365;51.030;4.696;2022-11-15T06:23:54;10.87;;;9.00;;
16504;SDS011;8365;51.030;4.696;2022-11-15T06:26:24;10.33;;;8.20;;
16504;SDS011;8365;51.030;4.696;2022-11-15T06:28:55;10.20;;;8.83;;
16504;SDS011;8365;51.030;4.696;2022-11-15T06:31:25;11.30;;;8.37;;
16504;SDS011;8365;51.030;4.696;2022-11-15T06:33:56;10.97;;;9.30;;
16504;SDS011;8365;51.030;4.696;2022-11-15T06:36:26;10.90;;;8.73;;
16504;SDS011;8365;51.030;4.696;2022-11-15T06:38:56;9.87;;;7.87;;
16504;SDS011;8365;51.030;4.696;2022-11-15T06:41:27;11.27;;;8.23;;
16504;SDS011;8365;51.030;4.696;2022-11-15T06:43:57;11.70;;;8.70;;
16504;SDS011;8365;51.030;4.696;2022-11-15T06:46:28;11.83;;;8.73;;
16504;SDS011;8365;51.030;4.696;2022-11-15T06:48:58;12.70;;;8.33;;
16504;SDS011;8365;51.030;4.696;2022-11-15T06:51:31;11.43;;;8.30;;
16504;SDS011;8365;51.030;4.696;2022-11-15T06:54:01;10.93;;;8.40;;
16504;SDS011;8365;51.030;4.696;2022-11-15T06:56:33;12.07;;;9.03;;
16504;SDS011;8365;51.030;4.696;2022-11-15T06:59:03;11.83;;;9.13;;
16504;SDS011;8365;51.030;4.696;2022-11-15T07:01:34;12.30;;;9.03;;
16504;SDS011;8365;51.030;4.696;2022-11-15T07:04:04;20.97;;;19.17;;
16504;SDS011;8365;51.030;4.696;2022-11-15T07:06:35;13.60;;;9.43;;
16504;SDS011;8365;51.030;4.696;2022-11-15T07:09:05;11.57;;;8.33;;
16504;SDS011;8365;51.030;4.696;2022-11-15T07:11:35;13.13;;;9.00;;
16504;SDS011;8365;51.030;4.696;2022-11-15T07:14:06;14.83;;;11.57;;
16504;SDS011;8365;51.030;4.696;2022-11-15T07:16:36;31.47;;;28.27;;
16504;SDS011;8365;51.030;4.696;2022-11-15T07:19:08;11.87;;;9.13;;
16504;SDS011;8365;51.030;4.696;2022-11-15T07:21:39;15.33;;;10.03;;
16504;SDS011;8365;51.030;4.696;2022-11-15T07:24:09;18.77;;;11.27;;
16504;SDS011;8365;51.030;4.696;2022-11-15T07:26:40;22.57;;;14.53;;
16504;SDS011;8365;51.030;4.696;2022-11-15T07:29:10;14.87;;;10.33;;
16504;SDS011;8365;51.030;4.696;2022-11-15T07:31:41;15.47;;;11.80;;
16504;SDS011;8365;51.030;4.696;2022-11-15T07:34:11;13.03;;;10.57;;
16504;SDS011;8365;51.030;4.696;2022-11-15T07:36:41;14.17;;;11.27;;
16504;SDS011;8365;51.030;4.696;2022-11-15T07:39:12;15.20;;;11.63;;
16504;SDS011;8365;51.030;4.696;2022-11-15T07:41:44;12.13;;;10.70;;
16504;SDS011;8365;51.030;4.696;2022-11-15T07:44:14;16.27;;;12.47;;
16504;SDS011;8365;51.030;4.696;2022-11-15T07:46:45;13.33;;;9.60;;
16504;SDS011;8365;51.030;4.696;2022-11-15T07:49:17;19.03;;;17.23;;
16504;SDS011;8365;51.030;4.696;2022-11-15T07:51:48;13.20;;;9.70;;
16504;SDS011;8365;51.030;4.696;2022-11-15T07:54:18;11.57;;;9.50;;
16504;SDS011;8365;51.030;4.696;2022-11-15T07:56:48;15.57;;;10.13;;
16504;SDS011;8365;51.030;4.696;2022-11-15T07:59:19;14.63;;;10.57;;
16504;SDS011;8365;51.030;4.696;2022-11-15T08:01:49;13.23;;;9.40;;
16504;SDS011;8365;51.030;4.696;2022-11-15T08:04:20;11.30;;;9.77;;
16504;SDS011;8365;51.030;4.696;2022-11-15T08:06:50;16.50;;;10.90;;
16504;SDS011;8365;51.030;4.696;2022-11-15T08:09:21;16.13;;;9.57;;
16504;SDS011;8365;51.030;4.696;2022-11-15T08:11:51;9.50;;;7.97;;
16504;SDS011;8365;51.030;4.696;2022-11-15T08:14:22;12.57;;;7.87;;
16504;SDS011;8365;51.030;4.696;2022-11-15T08:16:53;34.47;;;30.80;;
16504;SDS011;8365;51.030;4.696;2022-11-15T08:19:24;11.23;;;7.53;;
16504;SDS011;8365;51.030;4.696;2022-11-15T08:21:54;10.27;;;8.53;;
16504;SDS011;8365;51.030;4.696;2022-11-15T08:24:25;10.17;;;7.10;;
16504;SDS011;8365;51.030;4.696;2022-11-15T08:26:55;9.60;;;6.43;;
16504;SDS011;8365;51.030;4.696;2022-11-15T08:29:26;11.20;;;6.90;;
16504;SDS011;8365;51.030;4.696;2022-11-15T08:31:56;10.77;;;6.87;;
16504;SDS011;8365;51.030;4.696;2022-11-15T08:34:27;10.17;;;6.53;;
16504;SDS011;8365;51.030;4.696;2022-11-15T08:36:57;7.83;;;5.40;;
16504;SDS011;8365;51.030;4.696;2022-11-15T08:39:27;6.57;;;4.80;;
16504;SDS011;8365;51.030;4.696;2022-11-15T08:41:58;5.37;;;4.73;;
16504;SDS011;8365;51.030;4.696;2022-11-15T08:44:28;6.63;;;4.83;;
16504;SDS011;8365;51.030;4.696;2022-11-15T08:46:59;5.97;;;5.23;;
16504;SDS011;8365;51.030;4.696;2022-11-15T08:49:29;5.17;;;4.67;;
16504;SDS011;8365;51.030;4.696;2022-11-15T08:52:00;6.13;;;4.30;;
16504;SDS011;8365;51.030;4.696;2022-11-15T08:54:30;4.97;;;3.30;;
16504;SDS011;8365;51.030;4.696;2022-11-15T08:57:01;4.10;;;3.40;;
16504;SDS011;8365;51.030;4.696;2022-11-15T08:59:32;4.47;;;3.20;;
16504;SDS011;8365;51.030;4.696;2022-11-15T09:02:02;7.00;;;2.93;;
16504;SDS011;8365;51.030;4.696;2022-11-15T09:04:34;4.10;;;2.63;;
16504;SDS011;8365;51.030;4.696;2022-11-15T09:07:04;4.17;;;2.73;;
16504;SDS011;8365;51.030;4.696;2022-11-15T09:09:34;4.67;;;2.40;;
16504;SDS011;8365;51.030;4.696;2022-11-15T09:12:05;5.20;;;3.70;;
16504;SDS011;8365;51.030;4.696;2022-11-15T09:14:36;5.17;;;2.33;;
16504;SDS011;8365;51.030;4.696;2022-11-15T09:17:07;7.23;;;4.30;;
16504;SDS011;8365;51.030;4.696;2022-11-15T09:19:40;4.07;;;2.40;;
16504;SDS011;8365;51.030;4.696;2022-11-15T09:22:10;6.43;;;2.70;;
16504;SDS011;8365;51.030;4.696;2022-11-15T09:24:41;5.80;;;2.70;;
16504;SDS011;8365;51.030;4.696;2022-11-15T09:27:12;5.93;;;2.50;;
16504;SDS011;8365;51.030;4.696;2022-11-15T09:29:43;2.93;;;2.10;;
16504;SDS011;8365;51.030;4.696;2022-11-15T09:32:13;3.67;;;2.00;;
16504;SDS011;8365;51.030;4.696;2022-11-15T09:34:44;3.57;;;2.20;;
16504;SDS011;8365;51.030;4.696;2022-11-15T09:37:14;4.27;;;2.47;;
16504;SDS011;8365;51.030;4.696;2022-11-15T09:39:44;5.27;;;2.60;;
16504;SDS011;8365;51.030;4.696;2022-11-15T09:42:25;5.47;;;2.90;;
16504;SDS011;8365;51.030;4.696;2022-11-15T09:50:26;5.23;;;2.40;;
16504;SDS011;8365;51.030;4.696;2022-11-15T09:53:10;6.07;;;2.87;;
16504;SDS011;8365;51.030;4.696;2022-11-15T09:55:47;3.73;;;2.27;;
16504;SDS011;8365;51.030;4.696;2022-11-15T10:04:16;5.97;;;2.40;;
16504;SDS011;8365;51.030;4.696;2022-11-15T10:06:51;3.93;;;2.27;;
16504;SDS011;8365;51.030;4.696;2022-11-15T10:09:40;7.37;;;2.47;;
16504;SDS011;8365;51.030;4.696;2022-11-15T10:12:21;5.93;;;2.23;;
16504;SDS011;8365;51.030;4.696;2022-11-15T10:14:55;3.83;;;2.13;;
16504;SDS011;8365;51.030;4.696;2022-11-15T10:20:24;4.60;;;2.20;;
16504;SDS011;8365;51.030;4.696;2022-11-15T10:23:00;4.50;;;2.30;;
16504;SDS011;8365;51.030;4.696;2022-11-15T10:25:32;4.27;;;2.17;;
16504;SDS011;8365;51.030;4.696;2022-11-15T10:28:09;3.50;;;2.00;;
16504;SDS011;8365;51.030;4.696;2022-11-15T10:30:48;3.67;;;1.83;;
16504;SDS011;8365;51.030;4.696;2022-11-15T10:49:33;8.57;;;2.77;;
16504;SDS011;8365;51.030;4.696;2022-11-15T10:54:53;5.93;;;3.53;;
16504;SDS011;8365;51.030;4.696;2022-11-15T10:57:27;3.67;;;2.10;;
16504;SDS011;8365;51.030;4.696;2022-11-15T11:00:02;6.33;;;3.17;;
16504;SDS011;8365;51.030;4.696;2022-11-15T11:02:56;8.43;;;7.10;;
16504;SDS011;8365;51.030;4.696;2022-11-15T11:05:33;4.70;;;2.87;;
16504;SDS011;8365;51.030;4.696;2022-11-15T11:10:48;10.33;;;6.30;;
16504;SDS011;8365;51.030;4.696;2022-11-15T11:13:26;4.23;;;2.20;;
16504;SDS011;8365;51.030;4.696;2022-11-15T11:19:02;2.47;;;2.10;;
16504;SDS011;8365;51.030;4.696;2022-11-15T11:31:13;4.97;;;2.57;;
16504;SDS011;8365;51.030;4.696;2022-11-15T11:47:47;5.37;;;2.00;;
16504;SDS011;8365;51.030;4.696;2022-11-15T11:50:27;2.73;;;1.50;;
16504;SDS011;8365;51.030;4.696;2022-11-15T11:52:59;4.93;;;4.43;;
16504;SDS011;8365;51.030;4.696;2022-11-15T11:55:42;2.90;;;1.83;;
16504;SDS011;8365;51.030;4.696;2022-11-15T12:01:17;7.30;;;6.60;;
16504;SDS011;8365;51.030;4.696;2022-11-15T12:09:33;5.33;;;2.20;;
16504;SDS011;8365;51.030;4.696;2022-11-15T12:12:11;6.23;;;2.40;;
16504;SDS011;8365;51.030;4.696;2022-11-15T12:14:50;3.10;;;2.37;;
16504;SDS011;8365;51.030;4.696;2022-11-15T12:17:30;5.07;;;1.93;;
16504;SDS011;8365;51.030;4.696;2022-11-15T12:20:03;3.50;;;2.10;;
16504;SDS011;8365;51.030;4.696;2022-11-15T12:22:47;5.97;;;2.73;;
16504;SDS011;8365;51.030;4.696;2022-11-15T12:36:50;4.37;;;1.90;;
16504;SDS011;8365;51.030;4.696;2022-11-15T12:39:22;2.60;;;2.10;;
16504;SDS011;8365;51.030;4.696;2022-11-15T12:42:35;3.67;;;2.40;;
16504;SDS011;8365;51.030;4.696;2022-11-15T12:45:24;3.47;;;2.30;;
16504;SDS011;8365;51.030;4.696;2022-11-15T13:01:59;4.67;;;2.20;;
16504;SDS011;8365;51.030;4.696;2022-11-15T13:06:56;3.70;;;2.37;;
16504;SDS011;8365;51.030;4.696;2022-11-15T13:14:43;4.37;;;1.97;;
16504;SDS011;8365;51.030;4.696;2022-11-15T13:22:38;2.57;;;2.10;;
16504;SDS011;8365;51.030;4.696;2022-11-15T13:33:18;7.60;;;2.70;;
16504;SDS011;8365;51.030;4.696;2022-11-15T13:35:54;5.10;;;4.60;;
16504;SDS011;8365;51.030;4.696;2022-11-15T13:38:29;3.47;;;1.87;;
16504;SDS011;8365;51.030;4.696;2022-11-15T13:43:54;3.97;;;3.50;;
16504;SDS011;8365;51.030;4.696;2022-11-15T13:46:26;4.67;;;1.93;;
16504;SDS011;8365;51.030;4.696;2022-11-15T13:48:59;5.27;;;4.43;;
16504;SDS011;8365;51.030;4.696;2022-11-15T13:57:12;5.10;;;3.93;;
16504;SDS011;8365;51.030;4.696;2022-11-15T14:00:03;6.03;;;5.50;;
16504;SDS011;8365;51.030;4.696;2022-11-15T14:02:36;4.33;;;3.80;;
16504;SDS011;8365;51.030;4.696;2022-11-15T14:05:17;5.67;;;3.77;;
16504;SDS011;8365;51.030;4.696;2022-11-15T14:07:59;3.10;;;1.70;;
16504;SDS011;8365;51.030;4.696;2022-11-15T14:10:36;3.57;;;2.00;;
16504;SDS011;8365;51.030;4.696;2022-11-15T14:13:25;4.50;;;3.50;;
16504;SDS011;8365;51.030;4.696;2022-11-15T14:18:46;4.17;;;2.43;;
16504;SDS011;8365;51.030;4.696;2022-11-15T14:21:18;3.30;;;2.57;;
16504;SDS011;8365;51.030;4.696;2022-11-15T14:23:50;5.73;;;2.70;;
16504;SDS011;8365;51.030;4.696;2022-11-15T14:26:31;2.67;;;1.90;;
16504;SDS011;8365;51.030;4.696;2022-11-15T14:29:25;2.33;;;2.03;;
16504;SDS011;8365;51.030;4.696;2022-11-15T14:32:12;3.93;;;2.50;;
16504;SDS011;8365;51.030;4.696;2022-11-15T14:34:45;3.83;;;3.17;;
16504;SDS011;8365;51.030;4.696;2022-11-15T14:37:23;5.20;;;2.50;;
16504;SDS011;8365;51.030;4.696;2022-11-15T14:39:56;2.80;;;2.50;;
16504;SDS011;8365;51.030;4.696;2022-11-15T14:42:26;3.87;;;3.30;;
16504;SDS011;8365;51.030;4.696;2022-11-15T14:44:57;4.67;;;3.10;;
16504;SDS011;8365;51.030;4.696;2022-11-15T14:47:28;5.07;;;3.10;;
16504;SDS011;8365;51.030;4.696;2022-11-15T14:49:58;7.03;;;6.37;;
16504;SDS011;8365;51.030;4.696;2022-11-15T14:52:30;6.53;;;5.83;;
16504;SDS011;8365;51.030;4.696;2022-11-15T14:55:24;6.50;;;3.03;;
16504;SDS011;8365;51.030;4.696;2022-11-15T14:58:01;4.60;;;2.63;;
16504;SDS011;8365;51.030;4.696;2022-11-15T15:00:33;3.83;;;3.43;;
16504;SDS011;8365;51.030;4.696;2022-11-15T15:03:05;4.17;;;3.67;;
16504;SDS011;8365;51.030;4.696;2022-11-15T15:05:37;21.60;;;19.80;;
16504;SDS011;8365;51.030;4.696;2022-11-15T15:08:09;4.43;;;4.03;;
16504;SDS011;8365;51.030;4.696;2022-11-15T15:10:41;4.30;;;3.20;;
16504;SDS011;8365;51.030;4.696;2022-11-15T15:13:21;4.87;;;4.03;;
16504;SDS011;8365;51.030;4.696;2022-11-15T15:15:53;4.90;;;4.50;;
16504;SDS011;8365;51.030;4.696;2022-11-15T15:18:25;5.30;;;4.90;;
16504;SDS011;8365;51.030;4.696;2022-11-15T15:20:57;5.50;;;2.70;;
16504;SDS011;8365;51.030;4.696;2022-11-15T15:23:37;5.57;;;4.70;;
16504;SDS011;8365;51.030;4.696;2022-11-15T15:26:07;4.63;;;4.13;;
16504;SDS011;8365;51.030;4.696;2022-11-15T15:28:39;5.73;;;3.80;;
16504;SDS011;8365;51.030;4.696;2022-11-15T15:31:09;3.13;;;2.80;;
16504;SDS011;8365;51.030;4.696;2022-11-15T15:33:40;4.43;;;3.77;;
16504;SDS011;8365;51.030;4.696;2022-11-15T15:36:14;4.70;;;4.17;;
16504;SDS011;8365;51.030;4.696;2022-11-15T15:38:48;8.73;;;7.63;;
16504;SDS011;8365;51.030;4.696;2022-11-15T15:41:18;3.67;;;3.37;;
16504;SDS011;8365;51.030;4.696;2022-11-15T15:43:49;4.07;;;3.60;;
16504;SDS011;8365;51.030;4.696;2022-11-15T15:46:19;8.80;;;8.13;;
16504;SDS011;8365;51.030;4.696;2022-11-15T15:48:50;5.00;;;4.00;;
16504;SDS011;8365;51.030;4.696;2022-11-15T15:51:20;16.70;;;15.40;;
16504;SDS011;8365;51.030;4.696;2022-11-15T15:53:51;4.63;;;3.50;;
16504;SDS011;8365;51.030;4.696;2022-11-15T15:56:26;9.90;;;8.90;;
16504;SDS011;8365;51.030;4.696;2022-11-15T15:58:58;6.60;;;5.30;;
16504;SDS011;8365;51.030;4.696;2022-11-15T16:01:28;4.93;;;4.53;;
16504;SDS011;8365;51.030;4.696;2022-11-15T16:03:58;5.07;;;3.93;;
16504;SDS011;8365;51.030;4.696;2022-11-15T16:06:33;4.50;;;3.50;;
16504;SDS011;8365;51.030;4.696;2022-11-15T16:09:12;26.60;;;24.70;;
16504;SDS011;8365;51.030;4.696;2022-11-15T16:11:45;6.27;;;4.60;;
16504;SDS011;8365;51.030;4.696;2022-11-15T16:14:15;7.30;;;4.87;;
16504;SDS011;8365;51.030;4.696;2022-11-15T16:16:46;10.77;;;9.87;;
16504;SDS011;8365;51.030;4.696;2022-11-15T16:19:16;6.27;;;5.67;;
16504;SDS011;8365;51.030;4.696;2022-11-15T16:21:46;11.27;;;10.47;;
16504;SDS011;8365;51.030;4.696;2022-11-15T16:24:20;5.87;;;5.37;;
16504;SDS011;8365;51.030;4.696;2022-11-15T16:26:51;5.37;;;4.97;;
16504;SDS011;8365;51.030;4.696;2022-11-15T16:29:22;8.30;;;5.93;;
16504;SDS011;8365;51.030;4.696;2022-11-15T16:31:52;6.53;;;5.00;;
16504;SDS011;8365;51.030;4.696;2022-11-15T16:34:23;6.27;;;4.93;;
16504;SDS011;8365;51.030;4.696;2022-11-15T16:36:54;5.63;;;4.97;;
16504;SDS011;8365;51.030;4.696;2022-11-15T16:39:25;7.17;;;5.10;;
16504;SDS011;8365;51.030;4.696;2022-11-15T16:41:57;8.70;;;6.90;;
16504;SDS011;8365;51.030;4.696;2022-11-15T16:44:28;5.80;;;5.30;;
16504;SDS011;8365;51.030;4.696;2022-11-15T16:46:59;10.53;;;9.37;;
16504;SDS011;8365;51.030;4.696;2022-11-15T16:49:31;11.20;;;10.00;;
16504;SDS011;8365;51.030;4.696;2022-11-15T16:52:01;11.03;;;10.13;;
16504;SDS011;8365;51.030;4.696;2022-11-15T16:54:31;7.17;;;6.47;;
16504;SDS011;8365;51.030;4.696;2022-11-15T16:57:02;8.80;;;7.93;;
16504;SDS011;8365;51.030;4.696;2022-11-15T16:59:32;7.27;;;6.63;;
16504;SDS011;8365;51.030;4.696;2022-11-15T17:02:03;5.77;;;5.27;;
16504;SDS011;8365;51.030;4.696;2022-11-15T17:04:33;6.63;;;6.03;;
16504;SDS011;8365;51.030;4.696;2022-11-15T17:07:04;17.80;;;16.40;;
16504;SDS011;8365;51.030;4.696;2022-11-15T17:09:37;6.77;;;6.17;;
16504;SDS011;8365;51.030;4.696;2022-11-15T17:12:08;9.40;;;8.43;;
16504;SDS011;8365;51.030;4.696;2022-11-15T17:14:40;9.83;;;9.03;;
16504;SDS011;8365;51.030;4.696;2022-11-15T17:17:11;9.70;;;8.87;;
16504;SDS011;8365;51.030;4.696;2022-11-15T17:19:41;6.97;;;6.10;;
16504;SDS011;8365;51.030;4.696;2022-11-15T17:22:12;7.50;;;6.80;;
16504;SDS011;8365;51.030;4.696;2022-11-15T17:24:42;6.43;;;5.83;;
16504;SDS011;8365;51.030;4.696;2022-11-15T17:27:12;5.63;;;5.13;;
16504;SDS011;8365;51.030;4.696;2022-11-15T17:29:44;11.60;;;10.50;;
16504;SDS011;8365;51.030;4.696;2022-11-15T17:32:14;13.00;;;11.80;;
16504;SDS011;8365;51.030;4.696;2022-11-15T17:34:45;6.97;;;5.70;;
16504;SDS011;8365;51.030;4.696;2022-11-15T17:37:15;5.83;;;5.23;;
16504;SDS011;8365;51.030;4.696;2022-11-15T17:39:45;8.87;;;8.00;;
16504;SDS011;8365;51.030;4.696;2022-11-15T17:42:16;7.10;;;6.40;;
16504;SDS011;8365;51.030;4.696;2022-11-15T17:44:46;6.67;;;5.93;;
16504;SDS011;8365;51.030;4.696;2022-11-15T17:47:19;6.43;;;5.73;;
16504;SDS011;8365;51.030;4.696;2022-11-15T17:49:50;9.53;;;8.70;;
16504;SDS011;8365;51.030;4.696;2022-11-15T17:52:22;10.97;;;8.57;;
16504;SDS011;8365;51.030;4.696;2022-11-15T17:54:53;7.03;;;6.30;;
16504;SDS011;8365;51.030;4.696;2022-11-15T17:57:23;6.80;;;5.93;;
16504;SDS011;8365;51.030;4.696;2022-11-15T17:59:56;9.97;;;9.07;;
16504;SDS011;8365;51.030;4.696;2022-11-15T18:02:27;5.90;;;5.40;;
16504;SDS011;8365;51.030;4.696;2022-11-15T18:04:59;6.73;;;6.13;;